createdAt,value
2022-12-13T00:03:01.451Z,12.63
2022-12-13T00:08:03.255Z,12.32
2022-12-13T00:13:05.051Z,13.38
2022-12-13T00:18:07.168Z,12.35
2022-12-13T00:23:08.924Z,14.07
2022-12-13T00:28:11.271Z,12.00
2022-12-13T00:33:12.959Z,13.40
2022-12-13T00:38:14.835Z,12.40
2022-12-13T00:43:16.723Z,12.68
2022-12-13T00:48:18.391Z,13.18
2022-12-13T00:53:20.049Z,13.32
2022-12-13T00:58:21.711Z,12.73
2022-12-13T01:03:25.613Z,12.52
2022-12-13T01:08:29.044Z,11.77
2022-12-13T01:13:30.794Z,12.32
2022-12-13T01:18:32.849Z,12.45
2022-12-13T01:23:35.111Z,13.18
2022-12-13T01:28:36.986Z,13.65
2022-12-13T01:33:39.708Z,13.95
2022-12-13T01:38:41.824Z,14.90
2022-12-13T01:43:43.418Z,15.93
2022-12-13T01:49:19.531Z,14.93
2022-12-13T01:54:33.544Z,14.73
2022-12-13T01:59:39.891Z,14.20
2022-12-13T02:04:57.365Z,14.85
2022-12-13T02:10:01.464Z,14.52
2022-12-13T02:15:08.574Z,13.85
2022-12-13T02:20:51.122Z,14.77
2022-12-13T02:25:55.420Z,14.10
2022-12-13T02:31:18.360Z,12.70
2022-12-13T02:36:27.660Z,14.25
2022-12-13T02:41:39.473Z,13.93
2022-12-13T02:46:49.010Z,13.63
2022-12-13T02:51:52.471Z,13.40
2022-12-13T02:56:56.125Z,13.60
2022-12-13T03:02:09.606Z,11.90
2022-12-13T03:07:33.305Z,12.35
2022-12-13T03:12:57.827Z,12.40
2022-12-13T03:18:05.684Z,12.52
2022-12-13T03:23:11.201Z,12.15
2022-12-13T03:28:13.301Z,12.13
2022-12-13T03:33:15.029Z,12.82
2022-12-13T03:38:21.844Z,13.60
2022-12-13T03:43:25.351Z,12.45
2022-12-13T03:48:27.463Z,14.25
2022-12-13T03:53:33.719Z,14.48
2022-12-13T03:58:38.268Z,14.30
2022-12-13T04:03:41.775Z,14.13
2022-12-13T04:08:43.523Z,13.98
2022-12-13T04:13:45.176Z,14.55
2022-12-13T04:18:46.867Z,14.68
2022-12-13T04:23:48.511Z,15.52
2022-12-13T04:28:54.412Z,15.90
2022-12-13T04:33:56.507Z,17.07
2022-12-13T04:38:58.172Z,16.65
2022-12-13T04:44:04.214Z,18.02
2022-12-13T04:49:05.905Z,18.60
2022-12-13T04:54:24.284Z,18.30
2022-12-13T04:59:26.419Z,16.75
2022-12-13T05:04:32.667Z,15.48
2022-12-13T05:09:35.806Z,16.27
2022-12-13T05:14:37.481Z,14.70
2022-12-13T05:19:39.117Z,15.73
2022-12-13T05:24:42.008Z,16.27
2022-12-13T05:29:43.755Z,15.20
2022-12-13T05:34:45.409Z,15.98
2022-12-13T05:39:47.057Z,15.35
2022-12-13T05:44:48.730Z,13.95
2022-12-13T05:49:50.430Z,13.68
2022-12-13T05:54:56.451Z,13.40
2022-12-13T06:00:06.033Z,13.10
2022-12-13T06:05:27.849Z,13.40
2022-12-13T06:10:34.603Z,11.52
2022-12-13T06:15:38.245Z,13.43
2022-12-13T06:20:56.553Z,12.38
2022-12-13T06:25:58.683Z,10.93
2022-12-13T06:31:02.451Z,11.18
2022-12-13T06:36:05.905Z,11.25
2022-12-13T06:41:16.808Z,12.13
2022-12-13T06:46:18.634Z,13.88
2022-12-13T06:51:22.549Z,13.55
2022-12-13T06:56:24.447Z,13.05
2022-12-13T07:01:26.237Z,16.02
2022-12-13T07:06:28.117Z,17.08
2022-12-13T07:11:33.221Z,15.57
2022-12-13T07:16:35.921Z,14.00
2022-12-13T07:21:39.070Z,14.48
2022-12-13T07:26:40.759Z,15.52
2022-12-13T07:31:43.327Z,11.90
2022-12-13T07:36:46.597Z,13.45
2022-12-13T07:41:48.337Z,13.48
2022-12-13T07:46:50.232Z,12.98
2022-12-13T07:51:52.172Z,12.38
2022-12-13T07:56:58.566Z,11.82
2022-12-13T08:02:06.614Z,12.45
2022-12-13T08:07:09.341Z,12.73
2022-12-13T08:12:11.194Z,12.85
2022-12-13T08:17:12.983Z,12.05
2022-12-13T08:22:14.912Z,11.18
2022-12-13T08:27:25.593Z,12.98
2022-12-13T08:32:27.305Z,11.88
2022-12-13T08:37:28.956Z,12.38
2022-12-13T08:42:30.648Z,11.13
2022-12-13T08:47:34.533Z,10.07
2022-12-13T08:52:41.517Z,10.18
2022-12-13T08:57:45.197Z,12.23
2022-12-13T09:02:46.889Z,11.45
2022-12-13T09:07:48.595Z,9.15
2022-12-13T09:12:50.501Z,8.88
2022-12-13T09:17:52.997Z,8.65
2022-12-13T09:23:02.177Z,9.13
2022-12-13T09:28:06.992Z,9.70
2022-12-13T09:33:28.203Z,10.68
2022-12-13T09:38:30.438Z,10.30
2022-12-13T09:43:43.170Z,9.70
2022-12-13T09:48:48.149Z,8.93
2022-12-13T09:53:52.815Z,11.05
2022-12-13T09:58:56.517Z,12.02
2022-12-13T10:04:00.266Z,11.38
2022-12-13T10:09:02.075Z,11.40
2022-12-13T10:14:15.787Z,12.52
2022-12-13T10:19:33.739Z,11.60
2022-12-13T10:24:49.889Z,12.80
2022-12-13T10:30:12.698Z,11.98
2022-12-13T10:35:26.517Z,13.20
2022-12-13T10:40:35.661Z,15.10
2022-12-13T10:45:37.738Z,15.77
2022-12-13T10:50:39.705Z,15.77
2022-12-13T10:55:42.486Z,14.88
2022-12-13T11:00:46.311Z,16.02
2022-12-13T11:06:02.866Z,15.07
2022-12-13T11:11:06.871Z,14.33
2022-12-13T11:16:30.551Z,12.35
2022-12-13T11:21:36.764Z,13.48
2022-12-13T11:26:42.826Z,12.23
2022-12-13T11:31:51.423Z,10.77
2022-12-13T11:37:01.645Z,11.23
2022-12-13T11:42:15.411Z,10.52
2022-12-13T11:47:25.234Z,11.48
2022-12-13T11:52:40.952Z,10.93
2022-12-13T11:57:54.909Z,10.52
2022-12-13T12:03:06.491Z,9.63
2022-12-13T12:08:32.267Z,9.43
2022-12-13T12:13:51.114Z,11.53
2022-12-13T12:18:53.822Z,10.57
2022-12-13T12:24:09.609Z,10.90
2022-12-13T12:29:17.694Z,10.52
2022-12-13T12:34:51.739Z,10.05
2022-12-13T12:40:27.068Z,9.52
2022-12-13T12:46:11.578Z,10.02
2022-12-13T12:51:30.418Z,12.43
2022-12-13T12:56:50.397Z,12.55
2022-12-13T13:02:07.701Z,12.25
2022-12-13T13:07:39.708Z,10.70
2022-12-13T13:12:43.141Z,11.15
2022-12-13T13:17:46.806Z,13.57
2022-12-13T13:23:03.932Z,13.80
2022-12-13T13:28:17.262Z,16.23
2022-12-13T13:33:49.571Z,12.40
2022-12-13T13:38:53.431Z,10.98
2022-12-13T13:43:55.259Z,10.70
2022-12-13T13:49:10.126Z,12.02
2022-12-13T13:54:26.752Z,10.32
2022-12-13T13:59:53.219Z,10.32
2022-12-13T14:05:06.879Z,10.70
2022-12-13T14:10:27.176Z,9.70
2022-12-13T14:15:56.129Z,10.85
2022-12-13T14:21:22.388Z,9.57
2022-12-13T14:26:44.444Z,10.00
2022-12-13T14:31:53.463Z,10.30
2022-12-13T14:37:06.322Z,12.38
2022-12-13T14:42:24.858Z,10.35
2022-12-13T14:47:27.383Z,13.93
2022-12-13T14:52:35.574Z,14.23
2022-12-13T14:57:37.291Z,14.60
2022-12-13T15:02:51.044Z,15.02
2022-12-13T15:07:53.379Z,13.57
2022-12-13T15:12:55.861Z,14.95
2022-12-13T15:18:09.875Z,16.48
2022-12-13T15:28:39.764Z,15.27
2022-12-13T15:33:48.385Z,15.43
2022-12-13T15:38:53.572Z,15.80
2022-12-13T15:44:03.362Z,16.38
2022-12-13T15:49:16.399Z,16.83
2022-12-13T15:54:21.802Z,16.67
2022-12-13T15:59:44.134Z,18.00
2022-12-13T16:04:46.436Z,18.25
2022-12-13T16:09:50.682Z,17.95
2022-12-13T16:14:52.596Z,18.45
2022-12-13T16:20:09.817Z,24.08
2022-12-13T16:25:14.451Z,22.75
2022-12-13T16:30:24.457Z,20.40
2022-12-13T16:35:26.364Z,22.38
2022-12-13T16:40:33.230Z,19.80
2022-12-13T16:45:42.059Z,18.48
2022-12-13T16:50:57.600Z,19.00
2022-12-13T16:56:00.130Z,19.90
2022-12-13T17:01:02.880Z,20.75
2022-12-13T17:06:05.706Z,19.67
2022-12-13T17:11:14.619Z,18.48
2022-12-13T17:16:19.940Z,19.20
2022-12-13T17:21:26.183Z,19.23
2022-12-13T17:26:29.681Z,19.65
2022-12-13T17:31:35.821Z,20.42
2022-12-13T17:36:37.997Z,23.27
2022-12-13T17:41:40.082Z,20.90
2022-12-13T17:46:42.203Z,22.88
2022-12-13T17:51:56.918Z,23.05
2022-12-13T17:56:58.998Z,22.45
2022-12-13T18:02:02.601Z,24.23
2022-12-13T18:07:04.404Z,27.42
2022-12-13T18:12:08.581Z,24.08
2022-12-13T18:17:10.892Z,22.42
2022-12-13T18:22:12.888Z,21.92
2022-12-13T18:27:14.936Z,22.90
2022-12-13T18:32:16.678Z,26.65
2022-12-13T18:37:18.329Z,24.92
2022-12-13T18:42:20.187Z,24.90
2022-12-13T18:47:22.078Z,23.75
2022-12-13T18:52:24.043Z,24.10
2022-12-13T18:57:26.204Z,24.88
2022-12-13T19:02:34.075Z,25.83
2022-12-13T19:07:36.596Z,26.05
2022-12-13T19:12:38.464Z,24.83
2022-12-13T19:17:40.086Z,24.73
2022-12-13T19:22:41.740Z,25.13
2022-12-13T19:27:46.675Z,30.67
2022-12-13T19:32:48.464Z,23.10
2022-12-13T19:37:50.132Z,26.15
2022-12-13T19:42:51.887Z,27.88
2022-12-13T19:47:53.540Z,28.95
2022-12-13T19:52:55.345Z,27.30
2022-12-13T19:57:57.826Z,29.67
2022-12-13T20:02:59.554Z,31.38
2022-12-13T20:08:01.542Z,28.85
2022-12-13T20:13:03.501Z,31.60
2022-12-13T20:18:05.226Z,30.75
2022-12-13T20:23:06.827Z,31.77
2022-12-13T20:28:12.667Z,29.52
2022-12-13T20:33:16.106Z,28.30
2022-12-13T20:38:18.276Z,26.42
2022-12-13T20:43:20.092Z,26.20
2022-12-13T20:48:22.307Z,24.63
2022-12-13T20:53:24.544Z,22.55
2022-12-13T20:58:27.418Z,25.67
2022-12-13T21:03:29.148Z,22.70
2022-12-13T21:08:49.479Z,25.77
2022-12-13T21:14:03.634Z,25.85
2022-12-13T21:19:21.509Z,25.57
2022-12-13T21:24:28.276Z,25.40
2022-12-13T21:29:41.376Z,24.65
2022-12-13T21:34:44.435Z,26.00
2022-12-13T21:39:49.822Z,26.83
2022-12-13T21:44:52.281Z,27.23
2022-12-13T21:49:53.923Z,24.85
2022-12-13T21:55:15.316Z,24.42
2022-12-13T22:00:17.492Z,24.60
2022-12-13T22:05:19.216Z,24.73
2022-12-13T22:10:26.304Z,24.42
2022-12-13T22:15:28.515Z,25.35
2022-12-13T22:20:33.556Z,25.50
2022-12-13T22:25:36.329Z,24.20
2022-12-13T22:30:38.089Z,25.40
2022-12-13T22:35:40.173Z,24.27
2022-12-13T22:40:42.375Z,24.90
2022-12-13T22:45:46.184Z,24.10
2022-12-13T22:50:48.457Z,23.67
2022-12-13T22:55:52.622Z,25.25
2022-12-13T23:00:55.642Z,24.30
2022-12-13T23:06:15.929Z,22.75
2022-12-13T23:11:36.611Z,22.15
2022-12-13T23:16:39.291Z,22.60
2022-12-13T23:21:41.458Z,23.27
2022-12-13T23:26:50.163Z,21.30
2022-12-13T23:31:52.051Z,22.00
2022-12-13T23:36:53.657Z,20.48
2022-12-13T23:41:55.363Z,21.70
2022-12-13T23:46:57.026Z,22.48
2022-12-13T23:51:58.633Z,23.42
2022-12-13T23:57:01.355Z,22.40
